sensor_id;sensor_type;location;lat;lon;timestamp;pressure;altitude;pressure_sealevel;temperature
61977;BMP280;45905;50.570;10.428;2022-12-29T00:00:19;97276.63;;;7.45
61977;BMP280;45905;50.570;10.428;2022-12-29T00:02:46;97271.59;;;7.45
61977;BMP280;45905;50.570;10.428;2022-12-29T00:05:13;97258.84;;;7.47
61977;BMP280;45905;50.570;10.428;2022-12-29T00:07:41;97258.72;;;7.48
61977;BMP280;45905;50.570;10.428;2022-12-29T00:10:08;97253.53;;;7.50
61977;BMP280;45905;50.570;10.428;2022-12-29T00:12:35;97244.38;;;7.49
61977;BMP280;45905;50.570;10.428;2022-12-29T00:15:20;97237.78;;;7.56
61977;BMP280;45905;50.570;10.428;2022-12-29T00:18:07;97238.28;;;7.59
61977;BMP280;45905;50.570;10.428;2022-12-29T00:20:36;97241.88;;;7.57
61977;BMP280;45905;50.570;10.428;2022-12-29T00:23:22;97221.59;;;7.58
61977;BMP280;45905;50.570;10.428;2022-12-29T00:26:14;97230.88;;;7.58
61977;BMP280;45905;50.570;10.428;2022-12-29T00:29:01;97229.00;;;7.60
61977;BMP280;45905;50.570;10.428;2022-12-29T00:31:47;97218.91;;;7.60
61977;BMP280;45905;50.570;10.428;2022-12-29T00:34:33;97220.50;;;7.61
61977;BMP280;45905;50.570;10.428;2022-12-29T00:37:19;97208.84;;;7.60
61977;BMP280;45905;50.570;10.428;2022-12-29T00:40:07;97219.72;;;7.60
61977;BMP280;45905;50.570;10.428;2022-12-29T00:42:52;97205.38;;;7.61
61977;BMP280;45905;50.570;10.428;2022-12-29T00:45:41;97205.38;;;7.61
61977;BMP280;45905;50.570;10.428;2022-12-29T00:48:08;97211.97;;;7.61
61977;BMP280;45905;50.570;10.428;2022-12-29T00:50:35;97197.63;;;7.62
61977;BMP280;45905;50.570;10.428;2022-12-29T00:53:03;97189.13;;;7.63
61977;BMP280;45905;50.570;10.428;2022-12-29T00:55:30;97194.81;;;7.65
61977;BMP280;45905;50.570;10.428;2022-12-29T00:57:57;97192.16;;;7.66
61977;BMP280;45905;50.570;10.428;2022-12-29T01:00:25;97196.41;;;7.66
61977;BMP280;45905;50.570;10.428;2022-12-29T01:02:52;97192.28;;;7.65
61977;BMP280;45905;50.570;10.428;2022-12-29T01:05:19;97180.34;;;7.67
61977;BMP280;45905;50.570;10.428;2022-12-29T01:07:46;97186.03;;;7.69
61977;BMP280;45905;50.570;10.428;2022-12-29T01:10:14;97190.13;;;7.70
61977;BMP280;45905;50.570;10.428;2022-12-29T01:12:41;97188.22;;;7.72
61977;BMP280;45905;50.570;10.428;2022-12-29T01:15:12;97184.59;;;7.74
61977;BMP280;45905;50.570;10.428;2022-12-29T01:17:41;97199.41;;;7.77
61977;BMP280;45905;50.570;10.428;2022-12-29T01:20:09;97189.19;;;7.79
61977;BMP280;45905;50.570;10.428;2022-12-29T01:22:38;97200.81;;;7.80
61977;BMP280;45905;50.570;10.428;2022-12-29T01:25:06;97199.28;;;7.79
61977;BMP280;45905;50.570;10.428;2022-12-29T01:27:34;97202.91;;;7.84
61977;BMP280;45905;50.570;10.428;2022-12-29T01:30:01;97196.13;;;7.84
61977;BMP280;45905;50.570;10.428;2022-12-29T01:32:28;97203.53;;;7.86
61977;BMP280;45905;50.570;10.428;2022-12-29T01:34:55;97198.97;;;7.89
61977;BMP280;45905;50.570;10.428;2022-12-29T01:37:22;97198.97;;;7.89
61977;BMP280;45905;50.570;10.428;2022-12-29T01:39:50;97191.38;;;7.89
61977;BMP280;45905;50.570;10.428;2022-12-29T01:42:19;97198.16;;;7.89
61977;BMP280;45905;50.570;10.428;2022-12-29T01:44:55;97198.34;;;7.87
61977;BMP280;45905;50.570;10.428;2022-12-29T01:47:37;97195.81;;;7.87
61977;BMP280;45905;50.570;10.428;2022-12-29T01:53:02;97198.66;;;7.84
61977;BMP280;45905;50.570;10.428;2022-12-29T01:55:37;97190.16;;;7.85
61977;BMP280;45905;50.570;10.428;2022-12-29T01:58:09;97183.53;;;7.84
61977;BMP280;45905;50.570;10.428;2022-12-29T02:00:37;97181.94;;;7.83
61977;BMP280;45905;50.570;10.428;2022-12-29T02:03:06;97180.34;;;7.82
61977;BMP280;45905;50.570;10.428;2022-12-29T02:06:15;97184.47;;;7.83
61977;BMP280;45905;50.570;10.428;2022-12-29T02:08:47;97182.88;;;7.82
61977;BMP280;45905;50.570;10.428;2022-12-29T02:11:17;97173.72;;;7.81
61977;BMP280;45905;50.570;10.428;2022-12-29T02:13:44;97176.91;;;7.83
61977;BMP280;45905;50.570;10.428;2022-12-29T02:42:48;97154.34;;;7.82
61977;BMP280;45905;50.570;10.428;2022-12-29T02:45:51;97166.81;;;7.83
61977;BMP280;45905;50.570;10.428;2022-12-29T02:48:43;97173.44;;;7.84
61977;BMP280;45905;50.570;10.428;2022-12-29T02:51:25;97158.31;;;7.84
61977;BMP280;45905;50.570;10.428;2022-12-29T02:53:58;97163.03;;;7.87
61977;BMP280;45905;50.570;10.428;2022-12-29T02:56:44;97151.84;;;7.90
61977;BMP280;45905;50.570;10.428;2022-12-29T02:59:12;97160.19;;;7.90
61977;BMP280;45905;50.570;10.428;2022-12-29T03:02:00;97165.22;;;7.90
61977;BMP280;45905;50.570;10.428;2022-12-29T03:08:04;97156.09;;;7.97
61977;BMP280;45905;50.570;10.428;2022-12-29T03:11:06;97160.06;;;8.00
61977;BMP280;45905;50.570;10.428;2022-12-29T03:14:32;97153.00;;;8.03
61977;BMP280;45905;50.570;10.428;2022-12-29T03:17:32;97161.19;;;8.05
61977;BMP280;45905;50.570;10.428;2022-12-29T03:20:08;97164.47;;;8.05
61977;BMP280;45905;50.570;10.428;2022-12-29T03:22:43;97159.94;;;8.09
61977;BMP280;45905;50.570;10.428;2022-12-29T03:25:29;97158.97;;;8.10
61977;BMP280;45905;50.570;10.428;2022-12-29T03:28:37;97151.25;;;8.11
61977;BMP280;45905;50.570;10.428;2022-12-29T03:31:07;97161.19;;;8.13
61977;BMP280;45905;50.570;10.428;2022-12-29T03:33:39;97154.44;;;8.13
61977;BMP280;45905;50.570;10.428;2022-12-29T03:36:17;97147.47;;;8.15
61977;BMP280;45905;50.570;10.428;2022-12-29T03:39:08;97164.03;;;8.18
61977;BMP280;45905;50.570;10.428;2022-12-29T03:41:42;97149.84;;;8.17
61977;BMP280;45905;50.570;10.428;2022-12-29T03:44:13;97146.38;;;8.18
61977;BMP280;45905;50.570;10.428;2022-12-29T03:46:40;97145.28;;;8.20
61977;BMP280;45905;50.570;10.428;2022-12-29T03:49:08;97141.81;;;8.21
61977;BMP280;45905;50.570;10.428;2022-12-29T03:51:35;97134.09;;;8.22
61977;BMP280;45905;50.570;10.428;2022-12-29T03:54:04;97139.13;;;8.22
61977;BMP280;45905;50.570;10.428;2022-12-29T03:56:32;97133.75;;;8.25
61977;BMP280;45905;50.570;10.428;2022-12-29T03:59:00;97133.44;;;8.28
61977;BMP280;45905;50.570;10.428;2022-12-29T04:01:31;97112.94;;;8.31
61977;BMP280;45905;50.570;10.428;2022-12-29T04:03:58;97119.22;;;8.35
61977;BMP280;45905;50.570;10.428;2022-12-29T04:06:25;97110.72;;;8.36
61977;BMP280;45905;50.570;10.428;2022-12-29T04:09:02;97111.50;;;8.37
61977;BMP280;45905;50.570;10.428;2022-12-29T04:11:33;97101.25;;;8.38
61977;BMP280;45905;50.570;10.428;2022-12-29T04:14:03;97105.97;;;8.41
61977;BMP280;45905;50.570;10.428;2022-12-29T04:16:31;97109.47;;;8.40
61977;BMP280;45905;50.570;10.428;2022-12-29T04:19:07;97111.00;;;8.41
61977;BMP280;45905;50.570;10.428;2022-12-29T04:21:35;97109.13;;;8.43
61977;BMP280;45905;50.570;10.428;2022-12-29T04:24:04;97095.56;;;8.44
61977;BMP280;45905;50.570;10.428;2022-12-29T04:26:37;97098.72;;;8.46
61977;BMP280;45905;50.570;10.428;2022-12-29T04:29:19;97087.69;;;8.47
61977;BMP280;45905;50.570;10.428;2022-12-29T04:32:06;97084.22;;;8.48
61977;BMP280;45905;50.570;10.428;2022-12-29T04:34:37;97095.88;;;8.49
61977;BMP280;45905;50.570;10.428;2022-12-29T04:37:05;97083.88;;;8.51
61977;BMP280;45905;50.570;10.428;2022-12-29T04:39:33;97093.97;;;8.51
61977;BMP280;45905;50.570;10.428;2022-12-29T04:42:02;97097.91;;;8.53
61977;BMP280;45905;50.570;10.428;2022-12-29T04:44:29;97093.94;;;8.58
61977;BMP280;45905;50.570;10.428;2022-12-29T04:47:12;97092.53;;;8.64
61977;BMP280;45905;50.570;10.428;2022-12-29T04:50:04;97092.97;;;8.67
61977;BMP280;45905;50.570;10.428;2022-12-29T04:52:43;97092.81;;;8.69
61977;BMP280;45905;50.570;10.428;2022-12-29T04:55:13;97083.19;;;8.72
61977;BMP280;45905;50.570;10.428;2022-12-29T04:57:40;97084.13;;;8.71
61977;BMP280;45905;50.570;10.428;2022-12-29T05:00:10;97085.72;;;8.72
61977;BMP280;45905;50.570;10.428;2022-12-29T05:02:38;97091.38;;;8.74
61977;BMP280;45905;50.570;10.428;2022-12-29T05:05:06;97075.88;;;8.77
61977;BMP280;45905;50.570;10.428;2022-12-29T05:07:38;97069.41;;;8.82
61977;BMP280;45905;50.570;10.428;2022-12-29T05:10:06;97068.47;;;8.83
61977;BMP280;45905;50.570;10.428;2022-12-29T05:12:36;97074.91;;;8.86
61977;BMP280;45905;50.570;10.428;2022-12-29T05:15:06;97069.22;;;8.92
61977;BMP280;45905;50.570;10.428;2022-12-29T05:17:34;97073.31;;;8.93
61977;BMP280;45905;50.570;10.428;2022-12-29T05:20:03;97062.25;;;8.94
61977;BMP280;45905;50.570;10.428;2022-12-29T05:22:32;97076.75;;;8.99
61977;BMP280;45905;50.570;10.428;2022-12-29T05:24:59;97087.31;;;9.03
61977;BMP280;45905;50.570;10.428;2022-12-29T05:27:27;97075.13;;;9.06
61977;BMP280;45905;50.570;10.428;2022-12-29T05:30:05;97071.50;;;9.09
61977;BMP280;45905;50.570;10.428;2022-12-29T05:32:33;97068.03;;;9.10
61977;BMP280;45905;50.570;10.428;2022-12-29T05:35:00;97077.78;;;9.13
61977;BMP280;45905;50.570;10.428;2022-12-29T05:37:28;97078.41;;;9.14
61977;BMP280;45905;50.570;10.428;2022-12-29T05:39:55;97080.94;;;9.14
61977;BMP280;45905;50.570;10.428;2022-12-29T05:42:23;97076.00;;;9.21
61977;BMP280;45905;50.570;10.428;2022-12-29T05:44:55;97076.16;;;9.27
61977;BMP280;45905;50.570;10.428;2022-12-29T05:47:52;97076.94;;;9.28
61977;BMP280;45905;50.570;10.428;2022-12-29T05:50:31;97080.41;;;9.27
61977;BMP280;45905;50.570;10.428;2022-12-29T05:53:08;97068.72;;;9.26
61977;BMP280;45905;50.570;10.428;2022-12-29T05:55:36;97069.50;;;9.26
61977;BMP280;45905;50.570;10.428;2022-12-29T05:58:09;97060.19;;;9.27
61977;BMP280;45905;50.570;10.428;2022-12-29T06:00:36;97075.34;;;9.27
61977;BMP280;45905;50.570;10.428;2022-12-29T06:03:04;97074.41;;;9.28
61977;BMP280;45905;50.570;10.428;2022-12-29T06:05:32;97073.78;;;9.26
61977;BMP280;45905;50.570;10.428;2022-12-29T06:07:59;97082.59;;;9.30
61977;BMP280;45905;50.570;10.428;2022-12-29T06:10:27;97074.69;;;9.33
61977;BMP280;45905;50.570;10.428;2022-12-29T06:13:01;97073.91;;;9.32
61977;BMP280;45905;50.570;10.428;2022-12-29T06:15:32;97078.94;;;9.32
61977;BMP280;45905;50.570;10.428;2022-12-29T06:18:00;97079.13;;;9.31
61977;BMP280;45905;50.570;10.428;2022-12-29T06:20:27;97074.06;;;9.31
61977;BMP280;45905;50.570;10.428;2022-12-29T06:22:55;97073.09;;;9.32
61977;BMP280;45905;50.570;10.428;2022-12-29T06:25:22;97071.53;;;9.31
61977;BMP280;45905;50.570;10.428;2022-12-29T06:27:50;97076.59;;;9.31
61977;BMP280;45905;50.570;10.428;2022-12-29T06:30:17;97059.84;;;9.30
61977;BMP280;45905;50.570;10.428;2022-12-29T06:32:44;97059.06;;;9.29
61977;BMP280;45905;50.570;10.428;2022-12-29T06:35:13;97075.34;;;9.27
61977;BMP280;45905;50.570;10.428;2022-12-29T06:37:49;97060.19;;;9.27
61977;BMP280;45905;50.570;10.428;2022-12-29T06:40:17;97077.88;;;9.27
61977;BMP280;45905;50.570;10.428;2022-12-29T06:43:09;97071.25;;;9.26
61977;BMP280;45905;50.570;10.428;2022-12-29T06:45:55;97071.09;;;9.27
61977;BMP280;45905;50.570;10.428;2022-12-29T06:48:22;97066.47;;;9.31
61977;BMP280;45905;50.570;10.428;2022-12-29T06:50:49;97063.31;;;9.29
61977;BMP280;45905;50.570;10.428;2022-12-29T06:53:16;97069.63;;;9.33
61977;BMP280;45905;50.570;10.428;2022-12-29T06:55:44;97065.38;;;9.33
61977;BMP280;45905;50.570;10.428;2022-12-29T06:58:11;97061.72;;;9.35
61977;BMP280;45905;50.570;10.428;2022-12-29T07:00:38;97062.69;;;9.34
61977;BMP280;45905;50.570;10.428;2022-12-29T07:03:05;97063.47;;;9.35
61977;BMP280;45905;50.570;10.428;2022-12-29T07:05:33;97067.09;;;9.33
61977;BMP280;45905;50.570;10.428;2022-12-29T07:08:00;97066.31;;;9.32
61977;BMP280;45905;50.570;10.428;2022-12-29T07:10:27;97068.69;;;9.33
61977;BMP280;45905;50.570;10.428;2022-12-29T07:12:54;97076.59;;;9.31
61977;BMP280;45905;50.570;10.428;2022-12-29T07:15:21;97081.31;;;9.33
61977;BMP280;45905;50.570;10.428;2022-12-29T07:17:48;97084.63;;;9.34
61977;BMP280;45905;50.570;10.428;2022-12-29T07:20:19;97081.31;;;9.33
61977;BMP280;45905;50.570;10.428;2022-12-29T07:22:52;97077.03;;;9.34
61977;BMP280;45905;50.570;10.428;2022-12-29T07:25:19;97087.94;;;9.34
61977;BMP280;45905;50.570;10.428;2022-12-29T07:27:46;97090.31;;;9.36
61977;BMP280;45905;50.570;10.428;2022-12-29T07:30:14;97079.75;;;9.33
61977;BMP280;45905;50.570;10.428;2022-12-29T07:32:43;97090.63;;;9.33
61977;BMP280;45905;50.570;10.428;2022-12-29T07:35:10;97086.22;;;9.35
61977;BMP280;45905;50.570;10.428;2022-12-29T07:37:37;97087.94;;;9.34
61977;BMP280;45905;50.570;10.428;2022-12-29T07:40:05;97094.22;;;9.38
61977;BMP280;45905;50.570;10.428;2022-12-29T07:42:32;97088.38;;;9.38
61977;BMP280;45905;50.570;10.428;2022-12-29T07:45:00;97089.97;;;9.39
61977;BMP280;45905;50.570;10.428;2022-12-29T07:47:36;97078.09;;;9.39
61977;BMP280;45905;50.570;10.428;2022-12-29T07:50:04;97083.16;;;9.39
61977;BMP280;45905;50.570;10.428;2022-12-29T07:52:31;97080.63;;;9.39
61977;BMP280;45905;50.570;10.428;2022-12-29T07:54:59;97071.47;;;9.38
61977;BMP280;45905;50.570;10.428;2022-12-29T07:57:26;97064.69;;;9.39
61977;BMP280;45905;50.570;10.428;2022-12-29T07:59:58;97081.44;;;9.40
61977;BMP280;45905;50.570;10.428;2022-12-29T08:02:25;97079.06;;;9.38
61977;BMP280;45905;50.570;10.428;2022-12-29T08:04:56;97081.44;;;9.40
61977;BMP280;45905;50.570;10.428;2022-12-29T08:07:23;97081.25;;;9.41
61977;BMP280;45905;50.570;10.428;2022-12-29T08:09:50;97080.31;;;9.42
61977;BMP280;45905;50.570;10.428;2022-12-29T08:12:18;97086.94;;;9.43
61977;BMP280;45905;50.570;10.428;2022-12-29T08:14:45;97084.25;;;9.45
61977;BMP280;45905;50.570;10.428;2022-12-29T08:17:12;97080.75;;;9.46
61977;BMP280;45905;50.570;10.428;2022-12-29T08:19:39;97083.72;;;9.49
61977;BMP280;45905;50.570;10.428;2022-12-29T08:22:06;97086.25;;;9.49
61977;BMP280;45905;50.570;10.428;2022-12-29T08:24:34;97085.47;;;9.49
61977;BMP280;45905;50.570;10.428;2022-12-29T08:27:01;97069.34;;;9.50
61977;BMP280;45905;50.570;10.428;2022-12-29T08:29:41;97074.53;;;9.56
61977;BMP280;45905;50.570;10.428;2022-12-29T08:32:09;97074.53;;;9.56
61977;BMP280;45905;50.570;10.428;2022-12-29T08:34:36;97077.03;;;9.56
61977;BMP280;45905;50.570;10.428;2022-12-29T08:37:04;97082.09;;;9.56
61977;BMP280;45905;50.570;10.428;2022-12-29T08:39:31;97082.91;;;9.56
61977;BMP280;45905;50.570;10.428;2022-12-29T08:41:59;97092.50;;;9.61
61977;BMP280;45905;50.570;10.428;2022-12-29T08:44:26;97082.25;;;9.62
61977;BMP280;45905;50.570;10.428;2022-12-29T08:46:53;97092.34;;;9.62
61977;BMP280;45905;50.570;10.428;2022-12-29T08:49:20;97080.16;;;9.66
61977;BMP280;45905;50.570;10.428;2022-12-29T08:51:47;97079.50;;;9.72
61977;BMP280;45905;50.570;10.428;2022-12-29T08:54:14;97087.25;;;9.70
61977;BMP280;45905;50.570;10.428;2022-12-29T08:56:41;97082.03;;;9.72
61977;BMP280;45905;50.570;10.428;2022-12-29T08:59:09;97089.41;;;9.73
61977;BMP280;45905;50.570;10.428;2022-12-29T09:01:36;97097.63;;;9.75
61977;BMP280;45905;50.570;10.428;2022-12-29T09:04:07;97106.00;;;9.75
61977;BMP280;45905;50.570;10.428;2022-12-29T09:06:45;97108.22;;;9.78
61977;BMP280;45905;50.570;10.428;2022-12-29T09:09:12;97108.06;;;9.80
61977;BMP280;45905;50.570;10.428;2022-12-29T09:11:40;97089.88;;;9.76
61977;BMP280;45905;50.570;10.428;2022-12-29T09:14:08;97105.03;;;9.76
61977;BMP280;45905;50.570;10.428;2022-12-29T09:16:37;97103.78;;;9.80
61977;BMP280;45905;50.570;10.428;2022-12-29T09:19:04;97111.38;;;9.80
61977;BMP280;45905;50.570;10.428;2022-12-29T09:21:31;97112.47;;;9.78
61977;BMP280;45905;50.570;10.428;2022-12-29T09:23:59;97136.66;;;9.80
61977;BMP280;45905;50.570;10.428;2022-12-29T09:26:26;97132.22;;;9.82
61977;BMP280;45905;50.570;10.428;2022-12-29T09:28:53;97126.81;;;9.85
61977;BMP280;45905;50.570;10.428;2022-12-29T09:31:20;97121.59;;;9.87
61977;BMP280;45905;50.570;10.428;2022-12-29T09:33:47;97117.34;;;9.87
61977;BMP280;45905;50.570;10.428;2022-12-29T09:36:14;97132.16;;;9.90
61977;BMP280;45905;50.570;10.428;2022-12-29T09:38:41;97128.66;;;9.91
61977;BMP280;45905;50.570;10.428;2022-12-29T09:41:19;97123.97;;;9.88
61977;BMP280;45905;50.570;10.428;2022-12-29T09:44:07;97120.28;;;9.91
61977;BMP280;45905;50.570;10.428;2022-12-29T09:46:45;97114.75;;;9.95
61977;BMP280;45905;50.570;10.428;2022-12-29T09:50:00;97107.94;;;9.95
61977;BMP280;45905;50.570;10.428;2022-12-29T09:52:32;97114.75;;;9.95
61977;BMP280;45905;50.570;10.428;2022-12-29T09:55:14;97107.78;;;9.97
61977;BMP280;45905;50.570;10.428;2022-12-29T09:57:57;97112.47;;;10.00
61977;BMP280;45905;50.570;10.428;2022-12-29T10:00:56;97109.00;;;10.01
61977;BMP280;45905;50.570;10.428;2022-12-29T10:03:52;97096.97;;;10.03
61977;BMP280;45905;50.570;10.428;2022-12-29T10:06:33;97104.81;;;10.08
61977;BMP280;45905;50.570;10.428;2022-12-29T10:09:48;97104.81;;;10.08
61977;BMP280;45905;50.570;10.428;2022-12-29T10:12:43;97093.56;;;10.10
61977;BMP280;45905;50.570;10.428;2022-12-29T10:18:42;97095.59;;;10.14
61977;BMP280;45905;50.570;10.428;2022-12-29T10:24:13;97100.94;;;10.19
61977;BMP280;45905;50.570;10.428;2022-12-29T10:26:43;97107.72;;;10.19
61977;BMP280;45905;50.570;10.428;2022-12-29T10:29:23;97104.41;;;10.18
61977;BMP280;45905;50.570;10.428;2022-12-29T10:32:03;97094.13;;;10.20
61977;BMP280;45905;50.570;10.428;2022-12-29T10:34:42;97103.13;;;10.22
61977;BMP280;45905;50.570;10.428;2022-12-29T10:39:55;97096.13;;;10.24
61977;BMP280;45905;50.570;10.428;2022-12-29T10:42:44;97094.22;;;10.26
61977;BMP280;45905;50.570;10.428;2022-12-29T10:45:15;97086.47;;;10.28
61977;BMP280;45905;50.570;10.428;2022-12-29T10:48:03;97087.69;;;10.31
61977;BMP280;45905;50.570;10.428;2022-12-29T10:50:32;97072.50;;;10.31
61977;BMP280;45905;50.570;10.428;2022-12-29T10:53:04;97068.25;;;10.32
61977;BMP280;45905;50.570;10.428;2022-12-29T10:55:38;97073.88;;;10.34
61977;BMP280;45905;50.570;10.428;2022-12-29T10:58:13;97072.94;;;10.35
61977;BMP280;45905;50.570;10.428;2022-12-29T11:00:42;97087.34;;;10.34
61977;BMP280;45905;50.570;10.428;2022-12-29T11:03:41;97096.50;;;10.35
61977;BMP280;45905;50.570;10.428;2022-12-29T11:06:26;97093.19;;;10.35
61977;BMP280;45905;50.570;10.428;2022-12-29T11:09:24;97082.91;;;10.36
61977;BMP280;45905;50.570;10.428;2022-12-29T11:12:29;97089.69;;;10.36
61977;BMP280;45905;50.570;10.428;2022-12-29T11:17:50;97099.81;;;10.36
61977;BMP280;45905;50.570;10.428;2022-12-29T11:20:35;97096.34;;;10.37
61977;BMP280;45905;50.570;10.428;2022-12-29T11:23:23;97094.75;;;10.36
61977;BMP280;45905;50.570;10.428;2022-12-29T11:26:26;97110.72;;;10.36
61977;BMP280;45905;50.570;10.428;2022-12-29T11:29:27;97112.31;;;10.37
61977;BMP280;45905;50.570;10.428;2022-12-29T11:31:58;97113.44;;;10.35
61977;BMP280;45905;50.570;10.428;2022-12-29T11:34:34;97108.28;;;10.29
61977;BMP280;45905;50.570;10.428;2022-12-29T11:40:00;97094.91;;;10.20
61977;BMP280;45905;50.570;10.428;2022-12-29T11:42:40;97100.13;;;10.19
61977;BMP280;45905;50.570;10.428;2022-12-29T11:45:27;97105.38;;;10.17
61977;BMP280;45905;50.570;10.428;2022-12-29T11:48:06;97107.09;;;10.17
61977;BMP280;45905;50.570;10.428;2022-12-29T11:50:41;97097.16;;;10.15
61977;BMP280;45905;50.570;10.428;2022-12-29T11:53:34;97097.06;;;10.09
61977;BMP280;45905;50.570;10.428;2022-12-29T11:56:13;97112.25;;;10.09
61977;BMP280;45905;50.570;10.428;2022-12-29T11:58:42;97110.84;;;10.07
61977;BMP280;45905;50.570;10.428;2022-12-29T12:01:30;97109.44;;;10.04
61977;BMP280;45905;50.570;10.428;2022-12-29T12:04:15;97105.34;;;10.03
61977;BMP280;45905;50.570;10.428;2022-12-29T12:07:00;97096.97;;;10.03
61977;BMP280;45905;50.570;10.428;2022-12-29T12:09:43;97092.53;;;10.05
61977;BMP280;45905;50.570;10.428;2022-12-29T12:12:41;97093.47;;;10.04
61977;BMP280;45905;50.570;10.428;2022-12-29T12:15:24;97089.03;;;10.06
61977;BMP280;45905;50.570;10.428;2022-12-29T12:21:18;97082.41;;;10.05
61977;BMP280;45905;50.570;10.428;2022-12-29T12:29:58;97080.13;;;10.10
61977;BMP280;45905;50.570;10.428;2022-12-29T12:32:50;97070.63;;;10.11
61977;BMP280;45905;50.570;10.428;2022-12-29T12:35:51;97084.25;;;10.10
61977;BMP280;45905;50.570;10.428;2022-12-29T12:38:42;97090.88;;;10.11
61977;BMP280;45905;50.570;10.428;2022-12-29T12:44:29;97081.72;;;10.10
61977;BMP280;45905;50.570;10.428;2022-12-29T12:55:46;97102.19;;;10.01
61977;BMP280;45905;50.570;10.428;2022-12-29T12:58:43;97112.63;;;9.98
61977;BMP280;45905;50.570;10.428;2022-12-29T13:04:39;97119.81;;;9.95
61977;BMP280;45905;50.570;10.428;2022-12-29T13:10:41;97126.50;;;9.88
61977;BMP280;45905;50.570;10.428;2022-12-29T13:16:10;97139.16;;;9.88
61977;BMP280;45905;50.570;10.428;2022-12-29T13:22:12;97146.53;;;9.90
61977;BMP280;45905;50.570;10.428;2022-12-29T13:28:06;97147.31;;;9.90
61977;BMP280;45905;50.570;10.428;2022-12-29T13:31:04;97144.00;;;9.90
61977;BMP280;45905;50.570;10.428;2022-12-29T13:36:54;97144.38;;;9.87
61977;BMP280;45905;50.570;10.428;2022-12-29T13:39:39;97145.16;;;9.87
61977;BMP280;45905;50.570;10.428;2022-12-29T13:42:09;97145.47;;;9.84
61977;BMP280;45905;50.570;10.428;2022-12-29T13:44:52;97159.53;;;9.87
61977;BMP280;45905;50.570;10.428;2022-12-29T13:47:33;97152.59;;;9.89
61977;BMP280;45905;50.570;10.428;2022-12-29T13:50:05;97157.91;;;9.93
61977;BMP280;45905;50.570;10.428;2022-12-29T13:55:53;97139.88;;;9.96
61977;BMP280;45905;50.570;10.428;2022-12-29T13:58:57;97155.31;;;10.01
61977;BMP280;45905;50.570;10.428;2022-12-29T14:04:22;97159.25;;;10.04
61977;BMP280;45905;50.570;10.428;2022-12-29T14:07:15;97164.75;;;10.07
61977;BMP280;45905;50.570;10.428;2022-12-29T14:09:57;97160.16;;;10.10
61977;BMP280;45905;50.570;10.428;2022-12-29T14:12:40;97160.16;;;10.10
61977;BMP280;45905;50.570;10.428;2022-12-29T14:18:18;97154.31;;;10.10
61977;BMP280;45905;50.570;10.428;2022-12-29T14:21:07;97153.50;;;10.10
61977;BMP280;45905;50.570;10.428;2022-12-29T14:26:17;97160.84;;;10.05
61977;BMP280;45905;50.570;10.428;2022-12-29T14:31:58;97179.56;;;9.96
61977;BMP280;45905;50.570;10.428;2022-12-29T14:34:30;97180.03;;;9.91
61977;BMP280;45905;50.570;10.428;2022-12-29T14:37:02;97173.94;;;9.86
61977;BMP280;45905;50.570;10.428;2022-12-29T14:39:38;97179.16;;;9.85
61977;BMP280;45905;50.570;10.428;2022-12-29T14:47:41;97183.94;;;9.80
61977;BMP280;45905;50.570;10.428;2022-12-29T14:53:00;97174.44;;;9.74
61977;BMP280;45905;50.570;10.428;2022-12-29T14:55:46;97182.03;;;9.74
61977;BMP280;45905;50.570;10.428;2022-12-29T14:58:26;97191.34;;;9.73
61977;BMP280;45905;50.570;10.428;2022-12-29T15:00:55;97190.75;;;9.72
61977;BMP280;45905;50.570;10.428;2022-12-29T15:03:46;97191.22;;;9.67
61977;BMP280;45905;50.570;10.428;2022-12-29T15:06:18;97202.47;;;9.65
61977;BMP280;45905;50.570;10.428;2022-12-29T15:09:12;97202.03;;;9.61
61977;BMP280;45905;50.570;10.428;2022-12-29T15:11:53;97194.75;;;9.58
61977;BMP280;45905;50.570;10.428;2022-12-29T15:14:38;97203.91;;;9.59
61977;BMP280;45905;50.570;10.428;2022-12-29T15:17:33;97207.56;;;9.57
61977;BMP280;45905;50.570;10.428;2022-12-29T15:20:24;97205.19;;;9.55
61977;BMP280;45905;50.570;10.428;2022-12-29T15:23:00;97208.50;;;9.56
61977;BMP280;45905;50.570;10.428;2022-12-29T15:25:31;97203.44;;;9.56
61977;BMP280;45905;50.570;10.428;2022-12-29T15:28:04;97202.34;;;9.58
61977;BMP280;45905;50.570;10.428;2022-12-29T15:30:33;97200.44;;;9.60
61977;BMP280;45905;50.570;10.428;2022-12-29T15:33:00;97202.63;;;9.63
61977;BMP280;45905;50.570;10.428;2022-12-29T15:35:36;97198.97;;;9.66
61977;BMP280;45905;50.570;10.428;2022-12-29T15:38:25;97200.88;;;9.64
61977;BMP280;45905;50.570;10.428;2022-12-29T15:41:15;97208.66;;;9.62
61977;BMP280;45905;50.570;10.428;2022-12-29T15:46:38;97209.44;;;9.63
61977;BMP280;45905;50.570;10.428;2022-12-29T15:49:08;97221.09;;;9.64
61977;BMP280;45905;50.570;10.428;2022-12-29T15:51:38;97206.28;;;9.61
61977;BMP280;45905;50.570;10.428;2022-12-29T15:54:18;97219.09;;;9.59
61977;BMP280;45905;50.570;10.428;2022-12-29T15:56:46;97210.56;;;9.60
61977;BMP280;45905;50.570;10.428;2022-12-29T15:59:33;97204.09;;;9.58
61977;BMP280;45905;50.570;10.428;2022-12-29T16:02:02;97203.13;;;9.59
61977;BMP280;45905;50.570;10.428;2022-12-29T16:04:38;97206.59;;;9.58
61977;BMP280;45905;50.570;10.428;2022-12-29T16:07:31;97200.91;;;9.56
61977;BMP280;45905;50.570;10.428;2022-12-29T16:10:35;97197.97;;;9.52
61977;BMP280;45905;50.570;10.428;2022-12-29T16:15:40;97205.59;;;9.45
61977;BMP280;45905;50.570;10.428;2022-12-29T16:18:27;97210.31;;;9.40
61977;BMP280;45905;50.570;10.428;2022-12-29T16:20:56;97203.84;;;9.45
61977;BMP280;45905;50.570;10.428;2022-12-29T16:23:29;97219.97;;;9.44
61977;BMP280;45905;50.570;10.428;2022-12-29T16:25:57;97226.91;;;9.42
61977;BMP280;45905;50.570;10.428;2022-12-29T16:28:50;97237.34;;;9.39
61977;BMP280;45905;50.570;10.428;2022-12-29T16:34:11;97218.41;;;9.35
61977;BMP280;45905;50.570;10.428;2022-12-29T16:37:04;97226.00;;;9.35
61977;BMP280;45905;50.570;10.428;2022-12-29T16:39:36;97222.03;;;9.33
61977;BMP280;45905;50.570;10.428;2022-12-29T16:50:41;97226.97;;;9.27
61977;BMP280;45905;50.570;10.428;2022-12-29T16:53:28;97223.16;;;9.31
61977;BMP280;45905;50.570;10.428;2022-12-29T16:56:03;97225.53;;;9.32
61977;BMP280;45905;50.570;10.428;2022-12-29T16:58:30;97228.22;;;9.31
61977;BMP280;45905;50.570;10.428;2022-12-29T17:01:03;97223.94;;;9.31